sensor_id;sensor_type;location;lat;lon;timestamp;pressure;altitude;pressure_sealevel;temperature;humidity
38786;BME280;24535;45.508;12.252;2023-04-01T00:00:58;100377.84;;;14.59;68.00
38786;BME280;24535;45.508;12.252;2023-04-01T00:03:25;100380.47;;;14.59;67.52
38786;BME280;24535;45.508;12.252;2023-04-01T00:05:58;100386.47;;;14.62;67.33
38786;BME280;24535;45.508;12.252;2023-04-01T00:08:25;100383.81;;;14.62;67.57
38786;BME280;24535;45.508;12.252;2023-04-01T00:10:52;100380.06;;;14.64;67.58
38786;BME280;24535;45.508;12.252;2023-04-01T00:13:18;100370.28;;;14.65;67.76
38786;BME280;24535;45.508;12.252;2023-04-01T00:15:43;100370.59;;;14.71;67.60
38786;BME280;24535;45.508;12.252;2023-04-01T00:18:09;100369.34;;;14.75;68.30
38786;BME280;24535;45.508;12.252;2023-04-01T00:20:35;100369.75;;;14.80;67.96
38786;BME280;24535;45.508;12.252;2023-04-01T00:23:00;100377.84;;;14.89;67.45
38786;BME280;24535;45.508;12.252;2023-04-01T00:25:26;100382.06;;;14.91;67.21
38786;BME280;24535;45.508;12.252;2023-04-01T00:27:52;100376.44;;;14.94;66.90
38786;BME280;24535;45.508;12.252;2023-04-01T00:30:17;100378.13;;;14.95;66.50
38786;BME280;24535;45.508;12.252;2023-04-01T00:32:43;100379.09;;;14.94;67.16
38786;BME280;24535;45.508;12.252;2023-04-01T00:35:08;100388.75;;;14.95;66.79
38786;BME280;24535;45.508;12.252;2023-04-01T00:37:37;100376.75;;;14.91;67.06
38786;BME280;24535;45.508;12.252;2023-04-01T00:40:06;100369.06;;;14.88;66.39
38786;BME280;24535;45.508;12.252;2023-04-01T00:42:32;100377.28;;;14.85;66.26
38786;BME280;24535;45.508;12.252;2023-04-01T00:44:58;100378.81;;;14.78;66.72
38786;BME280;24535;45.508;12.252;2023-04-01T00:47:25;100369.47;;;14.74;66.64
38786;BME280;24535;45.508;12.252;2023-04-01T00:49:53;100373.09;;;14.73;66.51
38786;BME280;24535;45.508;12.252;2023-04-01T00:52:23;100364.72;;;14.68;66.54
38786;BME280;24535;45.508;12.252;2023-04-01T00:54:54;100366.97;;;14.63;66.56
38786;BME280;24535;45.508;12.252;2023-04-01T00:57:28;100364.44;;;14.61;66.66
38786;BME280;24535;45.508;12.252;2023-04-01T00:59:56;100368.31;;;14.57;66.79
38786;BME280;24535;45.508;12.252;2023-04-01T01:02:22;100360.53;;;14.55;67.04
38786;BME280;24535;45.508;12.252;2023-04-01T01:04:47;100372.53;;;14.59;67.28
38786;BME280;24535;45.508;12.252;2023-04-01T01:10:15;100358.56;;;14.57;67.22
38786;BME280;24535;45.508;12.252;2023-04-01T01:26:11;100341.38;;;14.42;66.48
38786;BME280;24535;45.508;12.252;2023-04-01T01:37:38;100350.69;;;14.27;66.93
38786;BME280;24535;45.508;12.252;2023-04-01T01:40:07;100343.97;;;14.23;66.91
38786;BME280;24535;45.508;12.252;2023-04-01T01:42:37;100353.75;;;14.22;66.94
38786;BME280;24535;45.508;12.252;2023-04-01T01:45:06;100359.16;;;14.21;67.64
38786;BME280;24535;45.508;12.252;2023-04-01T01:47:34;100345.50;;;14.16;66.87
38786;BME280;24535;45.508;12.252;2023-04-01T01:50:01;100344.66;;;14.15;67.42
38786;BME280;24535;45.508;12.252;2023-04-01T01:52:28;100337.81;;;14.13;67.33
38786;BME280;24535;45.508;12.252;2023-04-01T01:54:56;100348.13;;;14.16;67.36
38786;BME280;24535;45.508;12.252;2023-04-01T01:57:26;100342.00;;;14.15;67.76
38786;BME280;24535;45.508;12.252;2023-04-01T01:59:58;100351.75;;;14.15;67.76
38786;BME280;24535;45.508;12.252;2023-04-01T02:02:26;100349.13;;;14.15;67.48
38786;BME280;24535;45.508;12.252;2023-04-01T02:04:52;100350.06;;;14.14;67.72
38786;BME280;24535;45.508;12.252;2023-04-01T02:07:26;100351.31;;;14.09;67.46
38786;BME280;24535;45.508;12.252;2023-04-01T02:09:53;100346.31;;;14.06;67.06
38786;BME280;24535;45.508;12.252;2023-04-01T02:12:20;100343.19;;;14.01;67.37
38786;BME280;24535;45.508;12.252;2023-04-01T02:14:54;100346.13;;;13.98;67.12
38786;BME280;24535;45.508;12.252;2023-04-01T02:17:24;100346.13;;;13.98;67.44
38786;BME280;24535;45.508;12.252;2023-04-01T02:19:56;100360.47;;;13.96;67.42
38786;BME280;24535;45.508;12.252;2023-04-01T02:22:32;100359.63;;;13.95;66.95
38786;BME280;24535;45.508;12.252;2023-04-01T02:25:04;100339.97;;;13.88;67.16
38786;BME280;24535;45.508;12.252;2023-04-01T02:27:31;100345.41;;;13.87;67.48
38786;BME280;24535;45.508;12.252;2023-04-01T02:29:57;100349.13;;;13.84;67.45
38786;BME280;24535;45.508;12.252;2023-04-01T02:32:23;100339.78;;;13.80;66.96
38786;BME280;24535;45.508;12.252;2023-04-01T02:34:50;100337.28;;;13.78;66.80
38786;BME280;24535;45.508;12.252;2023-04-01T02:37:17;100334.63;;;13.78;67.71
38786;BME280;24535;45.508;12.252;2023-04-01T02:39:43;100334.88;;;13.75;67.25
38786;BME280;24535;45.508;12.252;2023-04-01T02:42:09;100344.38;;;13.78;66.79
38786;BME280;24535;45.508;12.252;2023-04-01T02:44:35;100347.28;;;13.75;67.03
38786;BME280;24535;45.508;12.252;2023-04-01T02:47:01;100348.38;;;13.72;67.07
38786;BME280;24535;45.508;12.252;2023-04-01T02:49:26;100349.38;;;13.71;67.56
38786;BME280;24535;45.508;12.252;2023-04-01T02:51:52;100351.56;;;13.66;66.82
38786;BME280;24535;45.508;12.252;2023-04-01T02:54:42;100348.22;;;13.64;67.28
38786;BME280;24535;45.508;12.252;2023-04-01T02:57:07;100351.00;;;13.63;66.84
38786;BME280;24535;45.508;12.252;2023-04-01T02:59:33;100356.81;;;13.56;66.87
38786;BME280;24535;45.508;12.252;2023-04-01T03:01:58;100361.41;;;13.54;66.70
38786;BME280;24535;45.508;12.252;2023-04-01T03:04:24;100361.91;;;13.48;66.02
38786;BME280;24535;45.508;12.252;2023-04-01T03:06:49;100367.59;;;13.44;66.66
38786;BME280;24535;45.508;12.252;2023-04-01T03:09:16;100359.91;;;13.41;66.61
38786;BME280;24535;45.508;12.252;2023-04-01T03:11:41;100355.00;;;13.36;66.48
38786;BME280;24535;45.508;12.252;2023-04-01T03:14:07;100367.56;;;13.34;67.18
38786;BME280;24535;45.508;12.252;2023-04-01T03:16:32;100361.81;;;13.29;66.69
38786;BME280;24535;45.508;12.252;2023-04-01T03:18:58;100368.88;;;13.28;66.64
38786;BME280;24535;45.508;12.252;2023-04-01T03:21:25;100369.88;;;13.27;66.33
38786;BME280;24535;45.508;12.252;2023-04-01T03:23:51;100371.94;;;13.24;66.71
38786;BME280;24535;45.508;12.252;2023-04-01T03:26:17;100368.56;;;13.22;66.59
38786;BME280;24535;45.508;12.252;2023-04-01T03:28:43;100375.06;;;13.18;66.35
38786;BME280;24535;45.508;12.252;2023-04-01T03:31:08;100370.28;;;13.11;66.65
38786;BME280;24535;45.508;12.252;2023-04-01T03:33:34;100363.56;;;13.07;66.00
38786;BME280;24535;45.508;12.252;2023-04-01T03:36:00;100369.81;;;13.06;66.66
38786;BME280;24535;45.508;12.252;2023-04-01T03:38:25;100362.13;;;13.03;66.75
38786;BME280;24535;45.508;12.252;2023-04-01T03:40:51;100350.03;;;13.01;66.66
38786;BME280;24535;45.508;12.252;2023-04-01T03:43:16;100350.88;;;13.01;67.09
38786;BME280;24535;45.508;12.252;2023-04-01T03:45:46;100343.19;;;12.98;67.23
38786;BME280;24535;45.508;12.252;2023-04-01T03:48:13;100351.13;;;12.98;67.00
38786;BME280;24535;45.508;12.252;2023-04-01T03:50:38;100349.44;;;12.97;67.26
38786;BME280;24535;45.508;12.252;2023-04-01T03:53:04;100358.47;;;12.95;67.21
38786;BME280;24535;45.508;12.252;2023-04-01T03:55:29;100368.66;;;12.99;67.16
38786;BME280;24535;45.508;12.252;2023-04-01T03:57:55;100363.50;;;12.98;66.88
38786;BME280;24535;45.508;12.252;2023-04-01T04:00:20;100359.28;;;12.95;66.47
38786;BME280;24535;45.508;12.252;2023-04-01T04:02:46;100356.91;;;12.92;66.09
38786;BME280;24535;45.508;12.252;2023-04-01T04:05:11;100352.00;;;12.87;66.34
38786;BME280;24535;45.508;12.252;2023-04-01T04:07:38;100354.06;;;12.84;66.64
38786;BME280;24535;45.508;12.252;2023-04-01T04:10:04;100367.41;;;12.82;65.91
38786;BME280;24535;45.508;12.252;2023-04-01T04:12:30;100356.38;;;12.77;66.38
38786;BME280;24535;45.508;12.252;2023-04-01T04:14:56;100357.47;;;12.75;66.03
38786;BME280;24535;45.508;12.252;2023-04-01T04:17:21;100356.88;;;12.71;66.19
38786;BME280;24535;45.508;12.252;2023-04-01T04:19:47;100358.22;;;12.66;66.28
38786;BME280;24535;45.508;12.252;2023-04-01T04:22:12;100362.66;;;12.65;66.63
38786;BME280;24535;45.508;12.252;2023-04-01T04:24:38;100371.44;;;12.66;66.70
38786;BME280;24535;45.508;12.252;2023-04-01T04:27:03;100380.34;;;12.65;65.85
38786;BME280;24535;45.508;12.252;2023-04-01T04:29:29;100375.44;;;12.60;65.76
38786;BME280;24535;45.508;12.252;2023-04-01T04:31:55;100384.19;;;12.60;66.14
38786;BME280;24535;45.508;12.252;2023-04-01T04:34:21;100367.84;;;12.55;66.19
38786;BME280;24535;45.508;12.252;2023-04-01T04:36:47;100354.91;;;12.52;65.56
38786;BME280;24535;45.508;12.252;2023-04-01T04:39:13;100360.31;;;12.51;65.58
38786;BME280;24535;45.508;12.252;2023-04-01T04:41:39;100356.81;;;12.50;66.33
38786;BME280;24535;45.508;12.252;2023-04-01T04:44:05;100369.94;;;12.52;66.91
38786;BME280;24535;45.508;12.252;2023-04-01T04:46:31;100375.78;;;12.55;66.46
38786;BME280;24535;45.508;12.252;2023-04-01T04:48:56;100385.41;;;12.56;66.70
38786;BME280;24535;45.508;12.252;2023-04-01T04:51:22;100387.31;;;12.54;66.57
38786;BME280;24535;45.508;12.252;2023-04-01T04:53:48;100386.63;;;12.52;66.15
38786;BME280;24535;45.508;12.252;2023-04-01T04:56:18;100389.50;;;12.49;65.65
38786;BME280;24535;45.508;12.252;2023-04-01T04:58:45;100380.13;;;12.45;66.05
38786;BME280;24535;45.508;12.252;2023-04-01T05:01:13;100390.84;;;12.44;65.29
38786;BME280;24535;45.508;12.252;2023-04-01T05:03:40;100391.19;;;12.39;65.20
38786;BME280;24535;45.508;12.252;2023-04-01T05:06:06;100398.66;;;12.34;65.25
38786;BME280;24535;45.508;12.252;2023-04-01T05:08:33;100396.25;;;12.31;65.27
38786;BME280;24535;45.508;12.252;2023-04-01T05:10:59;100402.50;;;12.30;65.45
38786;BME280;24535;45.508;12.252;2023-04-01T05:13:25;100400.34;;;12.24;66.17
38786;BME280;24535;45.508;12.252;2023-04-01T05:15:50;100404.66;;;12.25;65.74
38786;BME280;24535;45.508;12.252;2023-04-01T05:18:16;100398.66;;;12.23;66.16
38786;BME280;24535;45.508;12.252;2023-04-01T05:20:52;100413.28;;;12.27;66.42
38786;BME280;24535;45.508;12.252;2023-04-01T05:23:19;100419.41;;;12.27;66.39
38786;BME280;24535;45.508;12.252;2023-04-01T05:25:47;100409.94;;;12.25;66.19
38786;BME280;24535;45.508;12.252;2023-04-01T05:28:13;100412.59;;;12.25;65.46
38786;BME280;24535;45.508;12.252;2023-04-01T05:30:40;100418.34;;;12.30;66.73
38786;BME280;24535;45.508;12.252;2023-04-01T05:33:07;100422.56;;;12.32;66.30
38786;BME280;24535;45.508;12.252;2023-04-01T05:35:32;100416.44;;;12.32;66.02
38786;BME280;24535;45.508;12.252;2023-04-01T05:37:58;100421.59;;;12.33;65.67
38786;BME280;24535;45.508;12.252;2023-04-01T05:40:23;100427.00;;;12.32;66.10
38786;BME280;24535;45.508;12.252;2023-04-01T05:42:49;100436.09;;;12.39;67.02
38786;BME280;24535;45.508;12.252;2023-04-01T05:45:15;100443.78;;;12.53;67.16
38786;BME280;24535;45.508;12.252;2023-04-01T05:47:41;100439.06;;;12.68;67.90
38786;BME280;24535;45.508;12.252;2023-04-01T05:50:10;100435.28;;;12.93;67.94
38786;BME280;24535;45.508;12.252;2023-04-01T05:52:36;100444.06;;;13.26;67.75
38786;BME280;24535;45.508;12.252;2023-04-01T05:55:02;100445.66;;;13.49;68.34
38786;BME280;24535;45.508;12.252;2023-04-01T05:57:28;100446.41;;;13.82;67.89
38786;BME280;24535;45.508;12.252;2023-04-01T05:59:53;100449.78;;;14.15;67.36
38786;BME280;24535;45.508;12.252;2023-04-01T06:02:18;100435.81;;;14.43;66.26
38786;BME280;24535;45.508;12.252;2023-04-01T06:04:45;100434.34;;;14.70;65.94
38786;BME280;24535;45.508;12.252;2023-04-01T06:07:14;100439.16;;;14.95;65.03
38786;BME280;24535;45.508;12.252;2023-04-01T06:09:41;100425.59;;;15.08;64.19
38786;BME280;24535;45.508;12.252;2023-04-01T06:20:33;100445.72;;;15.01;63.72
38786;BME280;24535;45.508;12.252;2023-04-01T06:37:03;100472.94;;;15.22;64.56
38786;BME280;24535;45.508;12.252;2023-04-01T06:42:52;100476.97;;;15.55;63.56
38786;BME280;24535;45.508;12.252;2023-04-01T06:46:00;100485.94;;;15.74;63.42
38786;BME280;24535;45.508;12.252;2023-04-01T06:51:46;100484.22;;;16.02;62.55
38786;BME280;24535;45.508;12.252;2023-04-01T06:54:30;100485.44;;;16.07;63.26
38786;BME280;24535;45.508;12.252;2023-04-01T06:57:03;100484.03;;;16.13;63.26
38786;BME280;24535;45.508;12.252;2023-04-01T06:59:34;100500.66;;;16.25;62.76
38786;BME280;24535;45.508;12.252;2023-04-01T07:04:48;100496.63;;;16.48;62.56
38786;BME280;24535;45.508;12.252;2023-04-01T07:07:41;100486.63;;;16.60;61.42
38786;BME280;24535;45.508;12.252;2023-04-01T07:10:25;100488.09;;;16.82;60.72
38786;BME280;24535;45.508;12.252;2023-04-01T07:12:58;100483.09;;;16.97;60.37
38786;BME280;24535;45.508;12.252;2023-04-01T07:15:33;100486.91;;;17.12;60.97
38786;BME280;24535;45.508;12.252;2023-04-01T07:18:12;100489.28;;;17.33;60.15
38786;BME280;24535;45.508;12.252;2023-04-01T07:20:41;100497.72;;;17.46;59.63
38786;BME280;24535;45.508;12.252;2023-04-01T07:23:16;100504.50;;;17.59;59.15
38786;BME280;24535;45.508;12.252;2023-04-01T07:25:47;100503.41;;;17.69;59.04
38786;BME280;24535;45.508;12.252;2023-04-01T07:28:16;100500.34;;;17.82;58.09
38786;BME280;24535;45.508;12.252;2023-04-01T07:30:59;100510.25;;;17.90;57.53
38786;BME280;24535;45.508;12.252;2023-04-01T07:36:33;100513.72;;;18.08;56.19
38786;BME280;24535;45.508;12.252;2023-04-01T07:47:08;100513.47;;;18.53;55.67
38786;BME280;24535;45.508;12.252;2023-04-01T07:49:39;100522.09;;;18.73;56.54
38786;BME280;24535;45.508;12.252;2023-04-01T07:52:25;100514.97;;;18.90;55.32
38786;BME280;24535;45.508;12.252;2023-04-01T07:55:23;100522.16;;;18.98;54.15
38786;BME280;24535;45.508;12.252;2023-04-01T07:58:16;100525.16;;;18.95;54.16
38786;BME280;24535;45.508;12.252;2023-04-01T08:03:51;100525.47;;;18.92;53.66
38786;BME280;24535;45.508;12.252;2023-04-01T08:06:33;100523.84;;;18.99;54.17
38786;BME280;24535;45.508;12.252;2023-04-01T08:12:17;100519.53;;;19.06;53.44
38786;BME280;24535;45.508;12.252;2023-04-01T08:20:50;100518.13;;;19.61;56.12
38786;BME280;24535;45.508;12.252;2023-04-01T08:23:22;100518.28;;;19.84;55.87
38786;BME280;24535;45.508;12.252;2023-04-01T08:28:30;100523.75;;;20.23;55.47
38786;BME280;24535;45.508;12.252;2023-04-01T08:31:04;100517.03;;;20.35;55.00
38786;BME280;24535;45.508;12.252;2023-04-01T08:33:32;100523.69;;;20.56;54.87
38786;BME280;24535;45.508;12.252;2023-04-01T08:36:11;100515.91;;;20.77;52.68
38786;BME280;24535;45.508;12.252;2023-04-01T08:39:03;100512.78;;;20.96;54.13
38786;BME280;24535;45.508;12.252;2023-04-01T08:50:30;100530.38;;;21.76;53.10
38786;BME280;24535;45.508;12.252;2023-04-01T08:53:20;100527.63;;;21.99;49.66
38786;BME280;24535;45.508;12.252;2023-04-01T09:01:32;100534.91;;;22.73;47.71
38786;BME280;24535;45.508;12.252;2023-04-01T09:09:23;100528.19;;;23.13;48.70
38786;BME280;24535;45.508;12.252;2023-04-01T09:20:46;100529.34;;;23.25;46.31
38786;BME280;24535;45.508;12.252;2023-04-01T09:26:22;100533.56;;;23.13;44.86
38786;BME280;24535;45.508;12.252;2023-04-01T09:36:51;100526.03;;;23.23;47.11
38786;BME280;24535;45.508;12.252;2023-04-01T09:39:35;100522.19;;;23.32;45.88
38786;BME280;24535;45.508;12.252;2023-04-01T09:45:01;100530.81;;;23.42;44.79
38786;BME280;24535;45.508;12.252;2023-04-01T09:47:51;100521.50;;;23.45;45.56
38786;BME280;24535;45.508;12.252;2023-04-01T10:01:44;100521.22;;;22.97;43.95
38786;BME280;24535;45.508;12.252;2023-04-01T10:35:09;100512.09;;;21.26;45.40
38786;BME280;24535;45.508;12.252;2023-04-01T10:38:08;100507.53;;;21.11;45.80
38786;BME280;24535;45.508;12.252;2023-04-01T10:40:57;100504.91;;;21.03;45.54
38786;BME280;24535;45.508;12.252;2023-04-01T11:24:11;100485.56;;;19.65;49.29
38786;BME280;24535;45.508;12.252;2023-04-01T11:35:18;100483.19;;;19.54;50.39
38786;BME280;24535;45.508;12.252;2023-04-01T11:46:11;100465.00;;;19.41;50.51
38786;BME280;24535;45.508;12.252;2023-04-01T11:52:01;100476.00;;;19.38;51.13
38786;BME280;24535;45.508;12.252;2023-04-01T12:00:13;100477.66;;;19.31;51.16
38786;BME280;24535;45.508;12.252;2023-04-01T12:08:27;100469.81;;;19.21;51.36
38786;BME280;24535;45.508;12.252;2023-04-01T12:13:42;100474.81;;;19.16;51.43
38786;BME280;24535;45.508;12.252;2023-04-01T12:19:15;100476.78;;;19.06;51.51
38786;BME280;24535;45.508;12.252;2023-04-01T12:24:54;100467.78;;;19.07;52.16
38786;BME280;24535;45.508;12.252;2023-04-01T12:30:18;100472.28;;;19.07;51.64
38786;BME280;24535;45.508;12.252;2023-04-01T12:33:01;100474.13;;;19.06;52.48
38786;BME280;24535;45.508;12.252;2023-04-01T12:41:14;100461.94;;;19.03;51.78
38786;BME280;24535;45.508;12.252;2023-04-01T12:46:19;100465.59;;;19.02;52.34
38786;BME280;24535;45.508;12.252;2023-04-01T12:51:29;100449.59;;;19.02;52.02
38786;BME280;24535;45.508;12.252;2023-04-01T13:19:27;100442.41;;;18.95;52.94
38786;BME280;24535;45.508;12.252;2023-04-01T13:22:13;100436.22;;;18.94;52.82
38786;BME280;24535;45.508;12.252;2023-04-01T13:27:50;100439.91;;;18.93;52.74
38786;BME280;24535;45.508;12.252;2023-04-01T13:52:41;100418.88;;;18.90;53.17
38786;BME280;24535;45.508;12.252;2023-04-01T13:58:46;100406.34;;;18.91;53.29
38786;BME280;24535;45.508;12.252;2023-04-01T14:01:37;100410.84;;;18.90;53.11
38786;BME280;24535;45.508;12.252;2023-04-01T14:07:16;100399.53;;;18.88;52.91
38786;BME280;24535;45.508;12.252;2023-04-01T14:10:05;100404.00;;;18.88;53.12
38786;BME280;24535;45.508;12.252;2023-04-01T14:12:41;100401.50;;;18.86;52.96
38786;BME280;24535;45.508;12.252;2023-04-01T14:17:58;100406.03;;;18.86;53.10
38786;BME280;24535;45.508;12.252;2023-04-01T14:23:36;100399.84;;;18.85;52.41
38786;BME280;24535;45.508;12.252;2023-04-01T14:29:08;100406.19;;;18.84;52.77
38786;BME280;24535;45.508;12.252;2023-04-01T14:31:48;100407.16;;;18.83;52.38
38786;BME280;24535;45.508;12.252;2023-04-01T14:50:28;100385.81;;;18.75;52.85
38786;BME280;24535;45.508;12.252;2023-04-01T14:55:36;100381.31;;;18.75;52.27
38786;BME280;24535;45.508;12.252;2023-04-01T14:58:13;100378.63;;;18.75;52.96
38786;BME280;24535;45.508;12.252;2023-04-01T15:03:18;100378.81;;;18.74;52.48
38786;BME280;24535;45.508;12.252;2023-04-01T15:08:23;100383.31;;;18.73;53.25
38786;BME280;24535;45.508;12.252;2023-04-01T15:16:39;100382.63;;;18.71;52.97
38786;BME280;24535;45.508;12.252;2023-04-01T15:24:07;100364.41;;;18.67;52.90
38786;BME280;24535;45.508;12.252;2023-04-01T15:27:01;100362.56;;;18.67;52.90
38786;BME280;24535;45.508;12.252;2023-04-01T15:32:31;100363.06;;;18.63;53.46
38786;BME280;24535;45.508;12.252;2023-04-01T15:38:02;100363.25;;;18.61;53.03
38786;BME280;24535;45.508;12.252;2023-04-01T15:48:45;100356.75;;;18.56;53.77
38786;BME280;24535;45.508;12.252;2023-04-01T15:57:11;100355.88;;;18.55;54.37
38786;BME280;24535;45.508;12.252;2023-04-01T16:08:24;100340.75;;;18.56;54.38
38786;BME280;24535;45.508;12.252;2023-04-01T16:11:08;100343.88;;;18.51;54.56
38786;BME280;24535;45.508;12.252;2023-04-01T16:19:35;100343.88;;;18.51;54.40
38786;BME280;24535;45.508;12.252;2023-04-01T16:22:32;100355.53;;;18.50;54.57
38786;BME280;24535;45.508;12.252;2023-04-01T16:28:25;100355.22;;;18.45;54.26
38786;BME280;24535;45.508;12.252;2023-04-01T16:33:57;100362.03;;;18.39;54.31
38786;BME280;24535;45.508;12.252;2023-04-01T16:36:32;100366.88;;;18.36;54.42
38786;BME280;24535;45.508;12.252;2023-04-01T16:41:50;100363.50;;;18.34;54.00
38786;BME280;24535;45.508;12.252;2023-04-01T16:44:23;100367.84;;;18.35;54.06
38786;BME280;24535;45.508;12.252;2023-04-01T16:46:58;100363.00;;;18.30;54.75
38786;BME280;24535;45.508;12.252;2023-04-01T16:49:42;100370.34;;;18.28;54.66
38786;BME280;24535;45.508;12.252;2023-04-01T17:00:36;100365.63;;;18.22;55.10
38786;BME280;24535;45.508;12.252;2023-04-01T17:03:15;100373.13;;;18.18;55.22
38786;BME280;24535;45.508;12.252;2023-04-01T17:05:55;100375.25;;;18.15;54.74
38786;BME280;24535;45.508;12.252;2023-04-01T17:11:26;100375.06;;;18.00;55.45
38786;BME280;24535;45.508;12.252;2023-04-01T17:19:55;100381.97;;;17.85;56.03
38786;BME280;24535;45.508;12.252;2023-04-01T17:23:03;100384.94;;;17.82;55.85
38786;BME280;24535;45.508;12.252;2023-04-01T17:34:18;100402.50;;;17.66;56.56
38786;BME280;24535;45.508;12.252;2023-04-01T17:37:12;100402.28;;;17.60;56.60
38786;BME280;24535;45.508;12.252;2023-04-01T17:39:53;100415.84;;;17.48;57.02
38786;BME280;24535;45.508;12.252;2023-04-01T17:42:42;100420.81;;;17.43;57.52
38786;BME280;24535;45.508;12.252;2023-04-01T17:47:40;100441.34;;;17.33;58.05
38786;BME280;24535;45.508;12.252;2023-04-01T17:51:28;100443.16;;;17.33;58.66
38786;BME280;24535;45.508;12.252;2023-04-01T18:02:33;100466.84;;;17.18;60.71
38786;BME280;24535;45.508;12.252;2023-04-01T18:13:59;100477.50;;;17.18;60.38
38786;BME280;24535;45.508;12.252;2023-04-01T18:33:41;100488.56;;;17.13;62.15
38786;BME280;24535;45.508;12.252;2023-04-01T18:42:05;100484.41;;;17.11;61.92
38786;BME280;24535;45.508;12.252;2023-04-01T18:44:49;100487.91;;;17.11;61.66
38786;BME280;24535;45.508;12.252;2023-04-01T18:47:32;100499.09;;;17.15;61.94
38786;BME280;24535;45.508;12.252;2023-04-01T18:50:36;100491.94;;;17.15;61.53
38786;BME280;24535;45.508;12.252;2023-04-01T18:53:26;100491.25;;;17.13;61.50
38786;BME280;24535;45.508;12.252;2023-04-01T18:56:05;100483.97;;;17.15;61.67
38786;BME280;24535;45.508;12.252;2023-04-01T18:59:00;100488.44;;;17.15;61.80
38786;BME280;24535;45.508;12.252;2023-04-01T19:01:50;100485.63;;;17.16;61.93
38786;BME280;24535;45.508;12.252;2023-04-01T19:06:58;100490.13;;;17.16;62.01
38786;BME280;24535;45.508;12.252;2023-04-01T19:09:46;100503.25;;;17.17;61.58
38786;BME280;24535;45.508;12.252;2023-04-01T19:12:35;100507.09;;;17.15;62.60
38786;BME280;24535;45.508;12.252;2023-04-01T19:15:34;100504.72;;;17.12;61.67
38786;BME280;24535;45.508;12.252;2023-04-01T19:29:31;100500.09;;;17.14;61.93
38786;BME280;24535;45.508;12.252;2023-04-01T19:35:20;100504.56;;;17.13;62.03
38786;BME280;24535;45.508;12.252;2023-04-01T19:38:10;100507.22;;;17.13;61.24
38786;BME280;24535;45.508;12.252;2023-04-01T19:43:35;100509.38;;;17.10;61.39
38786;BME280;24535;45.508;12.252;2023-04-01T19:46:23;100507.00;;;17.07;61.81
38786;BME280;24535;45.508;12.252;2023-04-01T19:59:50;100519.97;;;16.92;61.26
38786;BME280;24535;45.508;12.252;2023-04-01T20:04:54;100517.13;;;16.93;61.90
38786;BME280;24535;45.508;12.252;2023-04-01T20:07:29;100521.50;;;16.94;61.95
38786;BME280;24535;45.508;12.252;2023-04-01T20:15:41;100521.59;;;17.02;62.21
38786;BME280;24535;45.508;12.252;2023-04-01T20:18:31;100528.41;;;17.05;62.42
38786;BME280;24535;45.508;12.252;2023-04-01T20:21:46;100526.63;;;17.05;61.92
38786;BME280;24535;45.508;12.252;2023-04-01T20:24:48;100526.31;;;17.09;61.37
38786;BME280;24535;45.508;12.252;2023-04-01T20:27:08;100526.31;;;17.09;62.39
38786;BME280;24535;45.508;12.252;2023-04-01T20:29:37;100531.78;;;17.07;62.25
38786;BME280;24535;45.508;12.252;2023-04-01T20:35:22;100525.63;;;17.07;62.12
38786;BME280;24535;45.508;12.252;2023-04-01T20:40:57;100531.94;;;17.05;61.94
38786;BME280;24535;45.508;12.252;2023-04-01T20:43:40;100537.28;;;17.05;61.65
38786;BME280;24535;45.508;12.252;2023-04-01T20:46:27;100539.94;;;17.05;61.99
38786;BME280;24535;45.508;12.252;2023-04-01T20:49:01;100542.59;;;17.05;61.41
38786;BME280;24535;45.508;12.252;2023-04-01T20:51:39;100547.22;;;17.03;61.56
38786;BME280;24535;45.508;12.252;2023-04-01T21:02:19;100549.06;;;16.93;61.89
38786;BME280;24535;45.508;12.252;2023-04-01T21:07:46;100559.03;;;16.91;61.95
38786;BME280;24535;45.508;12.252;2023-04-01T21:18:57;100577.56;;;16.83;62.43
38786;BME280;24535;45.508;12.252;2023-04-01T21:21:33;100575.91;;;16.82;61.77
38786;BME280;24535;45.508;12.252;2023-04-01T21:29:42;100573.22;;;16.72;62.59
38786;BME280;24535;45.508;12.252;2023-04-01T21:38:18;100584.03;;;16.71;63.02
38786;BME280;24535;45.508;12.252;2023-04-01T22:05:50;100612.03;;;15.89;63.87
38786;BME280;24535;45.508;12.252;2023-04-01T22:16:56;100615.19;;;15.64;65.55
38786;BME280;24535;45.508;12.252;2023-04-01T22:32:46;100623.69;;;15.38;65.44
38786;BME280;24535;45.508;12.252;2023-04-01T22:35:27;100618.66;;;15.35;65.50
38786;BME280;24535;45.508;12.252;2023-04-01T22:43:25;100619.47;;;15.26;66.15
38786;BME280;24535;45.508;12.252;2023-04-01T22:48:44;100628.81;;;15.20;66.16
38786;BME280;24535;45.508;12.252;2023-04-01T22:51:18;100631.47;;;15.20;65.96
38786;BME280;24535;45.508;12.252;2023-04-01T22:56:42;100626.84;;;15.22;66.61
38786;BME280;24535;45.508;12.252;2023-04-01T22:59:22;100618.06;;;15.22;66.77
38786;BME280;24535;45.508;12.252;2023-04-01T23:02:13;100623.94;;;15.25;66.96
38786;BME280;24535;45.508;12.252;2023-04-01T23:04:42;100620.19;;;15.28;66.41
38786;BME280;24535;45.508;12.252;2023-04-01T23:09:58;100631.38;;;15.31;66.19
38786;BME280;24535;45.508;12.252;2023-04-01T23:12:27;100628.97;;;15.28;66.18
38786;BME280;24535;45.508;12.252;2023-04-01T23:15:00;100639.34;;;15.31;66.49
38786;BME280;24535;45.508;12.252;2023-04-01T23:26:10;100631.59;;;15.19;66.23
38786;BME280;24535;45.508;12.252;2023-04-01T23:33:55;100631.25;;;15.02;66.61
38786;BME280;24535;45.508;12.252;2023-04-01T23:36:22;100637.53;;;15.01;66.84